Holstein, IA (51025)

6:39 AM CDT on July 23, 2016 (GMT -0500)
Holstein Ag Services, LLC | | Change Station

Elev 1381 ft 42.50 °N, 95.54 °W | Updated 56 seconds ago

Mostly Cloudy
Mostly Cloudy
78.0 °F
Feels Like 81 °F
N
5.0
Wind Variable Wind from SW
Gusts 11.0 mph

Today
High -- | Low -- °F
--% Chance of Precip.
Yesterday
High -- | Low -- °F
Precip. -- in
Pressure 29.85 in
Visibility 10.0 miles
Clouds Mostly Cloudy 9500 ft
Heat Index 81 °F
Dew Point 76 °F
Humidity 93%
Rainfall 0.00 in
Snow Depth Not available.
6:06 AM 8:50 PM
Waning Gibbous, 86% visible
METAR KCKP 231135Z AUTO 17006KT 10SM BKN095 26/25 A2985 RMK AO2 LTG DSNT E S AND NW T02550246
Pressure 29.85 in
Visibility 10.0 miles
Clouds Mostly Cloudy 9500 ft
Heat Index 81 °F
Dew Point 76 °F
Humidity 93%
Rainfall 0.00 in
Snow Depth Not available.
6:06 AM 8:50 PM
Waning Gibbous, 86% visible
METAR KCKP 231135Z AUTO 17006KT 10SM BKN095 26/25 A2985 RMK AO2 LTG DSNT E S AND NW T02550246

10-Day Weather Forecast

Almanac

Astronomy

Jul. 23, 2016 Rise Set
Actual Time
Civil Twilight
Nautical Twilight
Astronomical Twilight
Moon
Length of Visible Light
Length of Day
Tomorrow will be .
, % of the Moon is Illuminated

Today's Extremes

State Highs State Lows

Community

WunderPhotos

Upload Photos

1,926,810 photos uploaded!

WunderBlog® & News

Nearby

Air Quality

  Air Quality AQ Index Pollutant
Not available.

Snow Depth

Station Depth Elevation

Earthquake Activity

City Distance Mag. Time & Date
Minimum magnitude displayed is 2.5.

Coastal Water Temperatures

Place Temperature

Stations

Nearby Weather Stations

Station Location Temp. Windchill Dew Point Humidity Wind Precip. Elev Updated Type
                   

Watches & Warnings

There are currently no watches in effect.